Terminal Aerodrome Forecast
Issued by NWS Cleveland, OH

Home | Current Version | Previous Version | Text Only | Print | Product List | Glossary On
Versions: 1 2 3 4 5 6 7 8 9 10 11 12 13 14
332
FTUS41 KCLE 241121
TAFYNG
TAF
KYNG 241121Z 2412/2512 20010KT P6SM SCT012 OVC040
      TEMPO 2414/2418 5SM -SHRA OVC012
     FM241800 22015G25KT P6SM BKN025
     FM242000 22015G25KT P6SM BKN035
     FM250700 22012KT P6SM VCSH BKN025=

USA.gov is the U.S. government's official web portal to all federal, state and local government web resources and services.